createdAt,value
2018-02-15T00:00:54.431Z,25.37
2018-02-15T00:03:21.486Z,23.67
2018-02-15T00:05:47.572Z,24.37
2018-02-15T00:08:13.614Z,24.87
2018-02-15T00:10:40.860Z,24.80
2018-02-15T00:13:07.081Z,23.90
2018-02-15T00:15:34.132Z,25.90
2018-02-15T00:18:00.187Z,28.02
2018-02-15T00:20:26.239Z,25.40
2018-02-15T00:22:52.220Z,26.23
2018-02-15T00:25:18.188Z,24.73
2018-02-15T00:27:44.307Z,24.90
2018-02-15T00:30:11.547Z,23.35
2018-02-15T00:32:37.633Z,27.25
2018-02-15T00:35:03.875Z,26.42
2018-02-15T00:37:30.046Z,26.02
2018-02-15T00:39:56.086Z,24.27
2018-02-15T00:42:22.126Z,24.50
2018-02-15T00:44:48.161Z,24.77
2018-02-15T00:47:14.180Z,26.55
2018-02-15T00:49:40.188Z,26.35
2018-02-15T00:52:06.228Z,29.42
2018-02-15T00:54:32.281Z,27.00
2018-02-15T00:56:58.284Z,26.73
2018-02-15T00:59:24.405Z,25.67
2018-02-15T01:01:50.411Z,25.90
2018-02-15T01:04:16.419Z,25.83
2018-02-15T01:06:42.564Z,27.02
2018-02-15T01:09:08.632Z,24.87
2018-02-15T01:11:34.619Z,24.90
2018-02-15T01:14:00.717Z,27.30
2018-02-15T01:16:26.797Z,26.83
2018-02-15T01:18:53.837Z,24.35
2018-02-15T01:21:20.567Z,26.77
2018-02-15T01:23:46.582Z,26.00
2018-02-15T01:26:14.370Z,26.60
2018-02-15T01:28:40.523Z,24.92
2018-02-15T01:31:06.690Z,26.15
2018-02-15T01:33:33.431Z,26.08
2018-02-15T01:35:59.489Z,25.58
2018-02-15T01:38:25.494Z,25.75
2018-02-15T01:40:51.718Z,28.17
2018-02-15T01:43:18.767Z,26.87
2018-02-15T01:45:44.804Z,26.80
2018-02-15T01:48:11.061Z,25.40
2018-02-15T01:50:37.360Z,26.37
2018-02-15T01:53:03.474Z,25.02
2018-02-15T01:55:30.979Z,26.98
2018-02-15T01:57:57.222Z,28.25
2018-02-15T02:00:23.304Z,25.02
2018-02-15T02:02:49.377Z,25.10
2018-02-15T02:05:15.431Z,25.77
2018-02-15T02:07:41.524Z,25.33
2018-02-15T02:10:07.512Z,25.83
2018-02-15T02:12:33.611Z,26.93
2018-02-15T02:14:59.598Z,26.60
2018-02-15T02:17:25.827Z,26.90
2018-02-15T02:19:51.849Z,26.58
2018-02-15T02:22:17.836Z,24.80
2018-02-15T02:24:43.856Z,26.20
2018-02-15T02:27:09.916Z,26.90
2018-02-15T02:29:35.988Z,25.05
2018-02-15T02:32:02.748Z,25.00
2018-02-15T02:34:28.793Z,26.75
2018-02-15T02:36:55.061Z,24.73
2018-02-15T02:39:21.094Z,24.60
2018-02-15T02:41:47.194Z,26.37
2018-02-15T02:44:13.242Z,25.83
2018-02-15T02:46:39.779Z,26.52
2018-02-15T02:49:05.901Z,25.70
2018-02-15T02:51:31.894Z,25.50
2018-02-15T02:53:57.895Z,26.40
2018-02-15T02:56:23.976Z,25.17
2018-02-15T02:58:50.973Z,26.65
2018-02-15T03:01:17.003Z,25.73
2018-02-15T03:03:42.995Z,26.80
2018-02-15T03:06:09.018Z,24.37
2018-02-15T03:08:35.024Z,27.67
2018-02-15T03:11:01.031Z,26.05
2018-02-15T03:13:27.006Z,28.05
2018-02-15T03:15:53.278Z,27.23
2018-02-15T03:18:19.652Z,25.52
2018-02-15T03:20:45.670Z,25.35
2018-02-15T03:23:11.697Z,26.92
2018-02-15T03:25:37.704Z,26.23
2018-02-15T03:28:04.452Z,26.62
2018-02-15T03:30:30.499Z,26.17
2018-02-15T03:32:56.734Z,25.55
2018-02-15T03:35:22.710Z,26.30
2018-02-15T03:37:48.780Z,25.03
2018-02-15T03:40:14.761Z,26.15
2018-02-15T03:42:40.812Z,27.23
2018-02-15T03:45:07.794Z,28.77
2018-02-15T03:47:33.787Z,26.73
2018-02-15T03:49:59.762Z,27.00
2018-02-15T03:52:25.771Z,25.40
2018-02-15T03:54:51.808Z,27.30
2018-02-15T03:57:17.830Z,24.77
2018-02-15T03:59:43.839Z,26.02
2018-02-15T04:02:09.831Z,27.13
2018-02-15T04:04:36.560Z,24.57
2018-02-15T04:07:02.569Z,27.37
2018-02-15T04:09:28.573Z,23.87
2018-02-15T04:11:54.632Z,25.85
2018-02-15T04:14:20.850Z,25.50
2018-02-15T04:16:46.848Z,26.08
2018-02-15T04:19:12.944Z,26.00
2018-02-15T04:21:39.015Z,25.20
2018-02-15T04:24:05.026Z,27.58
2018-02-15T04:26:31.043Z,28.85
2018-02-15T04:28:57.068Z,26.40
2018-02-15T04:31:23.085Z,26.23
2018-02-15T04:33:49.112Z,27.77
2018-02-15T04:36:15.131Z,26.58
2018-02-15T04:38:41.261Z,25.48
2018-02-15T04:41:07.763Z,25.95
2018-02-15T04:43:33.838Z,27.08
2018-02-15T04:45:59.863Z,28.30
2018-02-15T04:48:25.942Z,27.05
2018-02-15T04:50:54.142Z,27.92
2018-02-15T04:53:20.802Z,27.70
2018-02-15T04:55:47.702Z,26.45
2018-02-15T04:58:13.847Z,28.55
2018-02-15T05:00:39.873Z,25.02
2018-02-15T05:03:06.173Z,28.52
2018-02-15T05:05:32.244Z,28.10
2018-02-15T05:07:58.249Z,28.00
2018-02-15T05:10:24.295Z,25.48
2018-02-15T05:12:52.271Z,25.85
2018-02-15T05:15:18.454Z,25.27
2018-02-15T05:17:44.603Z,26.50
2018-02-15T05:20:10.832Z,28.10
2018-02-15T05:22:38.075Z,27.33
2018-02-15T05:25:05.072Z,25.00
2018-02-15T05:27:31.127Z,25.27
2018-02-15T05:29:57.177Z,25.83
2018-02-15T05:32:23.188Z,27.80
2018-02-15T05:34:49.270Z,25.52
2018-02-15T05:37:15.340Z,25.58
2018-02-15T05:39:41.477Z,27.30
2018-02-15T05:42:07.683Z,25.70
2018-02-15T05:44:33.720Z,26.77
2018-02-15T05:46:59.748Z,24.77
2018-02-15T05:49:25.981Z,23.15
2018-02-15T05:51:51.972Z,26.37
2018-02-15T05:54:17.981Z,25.30
2018-02-15T05:56:44.438Z,24.12
2018-02-15T05:59:10.682Z,23.92
2018-02-15T06:01:36.704Z,26.00
2018-02-15T06:04:02.848Z,24.15
2018-02-15T06:06:28.825Z,24.05
2018-02-15T06:08:54.880Z,22.83
2018-02-15T06:11:21.676Z,22.58
2018-02-15T06:13:47.987Z,23.98
2018-02-15T06:16:14.046Z,22.70
2018-02-15T06:18:40.104Z,22.77
2018-02-15T06:21:06.318Z,23.17
2018-02-15T06:23:32.878Z,23.77
2018-02-15T06:25:59.130Z,22.70
2018-02-15T06:28:25.173Z,23.30
2018-02-15T06:30:51.617Z,25.05
2018-02-15T06:33:17.704Z,27.10
2018-02-15T06:35:43.732Z,25.15
2018-02-15T06:38:09.786Z,25.67
2018-02-15T06:40:35.789Z,24.12
2018-02-15T06:43:02.053Z,21.83
2018-02-15T06:45:28.122Z,32.67
2018-02-15T06:47:54.424Z,29.08
2018-02-15T06:50:20.498Z,27.83
2018-02-15T06:52:46.496Z,28.17
2018-02-15T06:55:15.792Z,28.60
2018-02-15T06:57:42.026Z,25.90
2018-02-15T07:00:08.076Z,23.67
2018-02-15T07:02:34.492Z,22.73
2018-02-15T07:05:00.555Z,22.42
2018-02-15T07:07:26.641Z,24.45
2018-02-15T07:09:52.815Z,22.90
2018-02-15T07:12:19.000Z,43.25
2018-02-15T07:14:45.033Z,40.67
2018-02-15T07:17:11.342Z,23.42
2018-02-15T07:19:37.576Z,25.30
2018-02-15T07:22:04.396Z,62.80
2018-02-15T07:24:30.376Z,20.95
2018-02-15T07:26:56.369Z,20.20
2018-02-15T07:29:22.495Z,22.30
2018-02-15T07:31:48.597Z,21.77
2018-02-15T07:34:14.599Z,21.92
2018-02-15T07:36:40.724Z,22.33
2018-02-15T07:39:07.044Z,22.25
2018-02-15T07:41:33.163Z,21.83
2018-02-15T07:43:59.158Z,20.80
2018-02-15T07:46:25.246Z,20.80
2018-02-15T07:48:53.143Z,26.83
2018-02-15T07:51:19.244Z,21.60
2018-02-15T07:53:47.366Z,20.00
2018-02-15T07:56:13.675Z,19.55
2018-02-15T07:58:40.690Z,20.83
2018-02-15T08:01:07.944Z,20.25
2018-02-15T08:03:34.066Z,20.15
2018-02-15T08:06:00.045Z,20.37
2018-02-15T08:08:26.021Z,18.23
2018-02-15T08:10:52.160Z,18.90
2018-02-15T08:13:18.149Z,17.60
2018-02-15T08:15:44.185Z,17.85
2018-02-15T08:18:10.209Z,19.20
2018-02-15T08:20:36.326Z,14.95
2018-02-15T08:23:03.299Z,17.27
2018-02-15T08:25:29.342Z,15.27
2018-02-15T08:27:55.370Z,15.75
2018-02-15T08:30:21.989Z,14.10
2018-02-15T08:32:48.055Z,16.70
2018-02-15T08:35:16.081Z,14.90
2018-02-15T08:37:42.208Z,15.85
2018-02-15T08:40:08.282Z,14.87
2018-02-15T08:42:34.357Z,15.27
2018-02-15T08:45:00.417Z,15.40
2018-02-15T08:47:26.467Z,15.05
2018-02-15T08:49:52.486Z,14.75
2018-02-15T08:52:19.314Z,15.07
2018-02-15T08:54:45.626Z,14.60
2018-02-15T08:57:11.675Z,15.63
2018-02-15T08:59:37.695Z,16.77
2018-02-15T09:02:04.664Z,14.18
2018-02-15T09:04:30.697Z,15.73
2018-02-15T09:06:56.737Z,14.40
2018-02-15T09:09:22.770Z,16.10
2018-02-15T09:11:49.168Z,16.80
2018-02-15T09:14:15.330Z,16.65
2018-02-15T09:16:41.385Z,17.02
2018-02-15T09:19:07.474Z,15.18
2018-02-15T09:21:34.477Z,15.02
2018-02-15T09:24:00.507Z,15.27
2018-02-15T09:26:26.523Z,17.35
2018-02-15T09:28:52.521Z,16.48
2018-02-15T09:31:18.740Z,17.70
2018-02-15T09:33:45.379Z,20.60
2018-02-15T09:36:12.235Z,21.95
2018-02-15T09:38:38.227Z,19.35
2018-02-15T09:41:04.340Z,18.33
2018-02-15T09:43:30.576Z,20.40
2018-02-15T09:45:56.631Z,23.45
2018-02-15T09:48:22.682Z,19.77
2018-02-15T09:50:48.788Z,17.77
2018-02-15T09:53:14.818Z,19.70
2018-02-15T09:55:40.819Z,18.10
2018-02-15T09:58:07.565Z,18.00
2018-02-15T10:00:34.327Z,17.00
2018-02-15T10:03:00.450Z,15.95
2018-02-15T10:05:26.766Z,15.88
2018-02-15T10:07:52.784Z,15.07
2018-02-15T10:10:19.162Z,16.08
2018-02-15T10:12:45.188Z,15.27
2018-02-15T10:15:11.194Z,16.48
2018-02-15T10:17:37.198Z,15.18
2018-02-15T10:20:04.285Z,13.25
2018-02-15T10:22:31.931Z,14.18
2018-02-15T10:24:58.191Z,13.50
2018-02-15T10:27:25.675Z,14.60
2018-02-15T10:29:51.708Z,14.05
2018-02-15T10:32:17.785Z,13.60
2018-02-15T10:34:43.890Z,14.32
2018-02-15T10:37:11.126Z,13.60
2018-02-15T10:39:37.912Z,14.00
2018-02-15T10:42:03.929Z,13.85
2018-02-15T10:44:29.946Z,14.07
2018-02-15T10:46:56.959Z,14.75
2018-02-15T10:49:23.671Z,14.13
2018-02-15T10:51:49.757Z,13.98
2018-02-15T10:54:15.826Z,12.50
2018-02-15T10:56:41.895Z,14.25
2018-02-15T10:59:07.886Z,13.27
2018-02-15T11:01:39.971Z,13.32
2018-02-15T11:04:12.372Z,14.38
2018-02-15T11:06:38.505Z,15.88
2018-02-15T11:09:04.506Z,14.40
2018-02-15T11:11:31.274Z,13.80
2018-02-15T11:13:57.826Z,14.20
2018-02-15T11:16:23.845Z,13.75
2018-02-15T11:18:50.049Z,14.90
2018-02-15T11:21:16.806Z,15.00
2018-02-15T11:23:42.856Z,14.82
2018-02-15T11:26:09.058Z,14.18
2018-02-15T11:28:35.800Z,16.12
2018-02-15T11:31:03.343Z,14.95
2018-02-15T11:33:29.459Z,18.90
2018-02-15T11:35:56.123Z,15.73
2018-02-15T11:38:22.136Z,14.50
2018-02-15T11:40:48.094Z,13.70
2018-02-15T11:43:14.815Z,15.10
2018-02-15T11:45:41.760Z,14.68
2018-02-15T11:48:08.427Z,15.35
2018-02-15T11:50:34.556Z,14.80
2018-02-15T11:53:01.250Z,15.02
2018-02-15T11:55:27.269Z,14.07
2018-02-15T11:57:53.284Z,19.02
2018-02-15T12:00:19.394Z,15.02
2018-02-15T12:02:45.442Z,14.30
2018-02-15T12:05:11.412Z,15.32
2018-02-15T12:07:37.562Z,13.57
2018-02-15T12:10:03.528Z,13.98
2018-02-15T12:12:36.367Z,14.93
2018-02-15T12:15:03.056Z,14.25
2018-02-15T12:17:29.023Z,14.85
2018-02-15T12:19:55.669Z,12.93
2018-02-15T12:22:21.613Z,16.10
2018-02-15T12:24:47.541Z,13.50
2018-02-15T12:27:13.516Z,15.50
2018-02-15T12:29:40.470Z,15.23
2018-02-15T12:32:07.220Z,15.07
2018-02-15T12:34:33.267Z,14.97
2018-02-15T12:37:00.126Z,15.43
2018-02-15T12:39:26.153Z,16.55
2018-02-15T12:41:52.142Z,16.12
2018-02-15T12:44:18.969Z,16.97
2018-02-15T12:46:45.109Z,16.67
2018-02-15T12:49:11.108Z,16.60
2018-02-15T12:51:37.298Z,17.00
2018-02-15T12:54:03.459Z,16.23
2018-02-15T12:56:29.458Z,16.92
2018-02-15T12:58:56.022Z,15.88
2018-02-15T13:01:22.757Z,17.90
2018-02-15T13:03:48.673Z,17.20
2018-02-15T13:06:14.688Z,18.13
2018-02-15T13:08:40.742Z,18.10
2018-02-15T13:11:07.407Z,17.37
2018-02-15T13:13:33.412Z,17.62
2018-02-15T13:16:11.646Z,19.17
2018-02-15T13:18:37.804Z,18.55
2018-02-15T13:21:03.795Z,19.00
2018-02-15T13:23:29.791Z,18.50
2018-02-15T13:25:55.892Z,17.80
2018-02-15T13:28:29.966Z,18.23
2018-02-15T13:30:56.943Z,19.85
2018-02-15T13:33:23.614Z,20.67
2018-02-15T13:35:49.529Z,19.87
2018-02-15T13:38:15.463Z,18.70
2018-02-15T13:40:41.812Z,19.50
2018-02-15T13:43:07.779Z,18.70
2018-02-15T13:45:33.750Z,20.03
2018-02-15T13:48:00.032Z,20.07
2018-02-15T13:50:26.717Z,21.02
2018-02-15T13:52:52.656Z,20.02
2018-02-15T13:55:18.580Z,20.30
2018-02-15T13:57:44.567Z,22.10
2018-02-15T14:00:10.688Z,21.23
2018-02-15T14:02:36.703Z,25.62
2018-02-15T14:05:02.740Z,22.20
2018-02-15T14:07:28.715Z,25.60
2018-02-15T14:09:56.411Z,23.20
2018-02-15T14:12:22.381Z,22.52
2018-02-15T14:14:49.059Z,22.73
2018-02-15T14:17:15.108Z,23.33
2018-02-15T14:19:41.034Z,22.52
2018-02-15T14:22:07.040Z,23.20
2018-02-15T14:24:33.587Z,22.77
2018-02-15T14:26:59.611Z,20.55
2018-02-15T14:29:25.582Z,21.25
2018-02-15T14:31:55.587Z,21.77
2018-02-15T14:34:23.114Z,21.80
2018-02-15T14:36:49.131Z,24.83
2018-02-15T14:39:15.114Z,22.58
2018-02-15T14:41:41.114Z,23.37
2018-02-15T14:44:07.100Z,24.45
2018-02-15T14:46:33.100Z,24.00
2018-02-15T14:48:59.142Z,24.40
2018-02-15T14:51:25.966Z,22.08
2018-02-15T14:53:51.993Z,24.15
2018-02-15T14:56:17.950Z,25.52
2018-02-15T14:58:43.879Z,22.97
2018-02-15T15:01:09.869Z,27.10
2018-02-15T15:03:35.839Z,24.33
2018-02-15T15:06:02.701Z,25.10
2018-02-15T15:08:28.698Z,24.77
2018-02-15T15:10:54.691Z,25.90
2018-02-15T15:13:20.803Z,25.67
2018-02-15T15:15:46.776Z,28.02
2018-02-15T15:18:12.841Z,26.10
2018-02-15T15:20:38.824Z,24.77
2018-02-15T15:23:05.535Z,26.30
2018-02-15T15:25:31.505Z,28.98
2018-02-15T15:27:57.490Z,28.30
2018-02-15T15:30:24.247Z,27.10
2018-02-15T15:32:50.955Z,27.02
2018-02-15T15:35:17.006Z,25.83
2018-02-15T15:37:43.155Z,27.48
2018-02-15T15:40:09.277Z,25.58
2018-02-15T15:42:36.112Z,28.02
2018-02-15T15:45:02.090Z,26.67
2018-02-15T15:47:28.087Z,30.67
2018-02-15T15:49:54.116Z,29.20
2018-02-15T15:52:20.122Z,29.00
2018-02-15T15:54:46.345Z,30.30
2018-02-15T15:57:12.506Z,32.83
2018-02-15T15:59:38.538Z,29.98
2018-02-15T16:02:04.452Z,32.15
2018-02-15T16:04:30.405Z,29.93
2018-02-15T16:06:57.147Z,31.07
2018-02-15T16:09:23.881Z,33.17
2018-02-15T16:11:49.867Z,32.67
2018-02-15T16:14:15.823Z,30.67
2018-02-15T16:16:42.551Z,33.03
2018-02-15T16:19:09.403Z,29.33
2018-02-15T16:21:36.121Z,34.25
2018-02-15T16:24:02.079Z,34.35
2018-02-15T16:26:33.926Z,35.30
2018-02-15T16:29:00.124Z,32.78
2018-02-15T16:31:26.080Z,32.13
2018-02-15T16:33:52.782Z,34.27
2018-02-15T16:36:18.741Z,34.03
2018-02-15T16:38:45.457Z,31.10
2018-02-15T16:41:12.261Z,31.50
2018-02-15T16:43:38.272Z,31.75
2018-02-15T16:46:04.274Z,32.63
2018-02-15T16:48:30.242Z,32.07
2018-02-15T16:50:56.275Z,32.10
2018-02-15T16:53:25.774Z,32.40
2018-02-15T16:55:52.437Z,29.67
2018-02-15T16:58:21.035Z,30.20
2018-02-15T17:00:47.224Z,32.20
2018-02-15T17:03:15.633Z,30.92
2018-02-15T17:05:43.102Z,30.17
2018-02-15T17:08:09.894Z,30.15
2018-02-15T17:10:35.869Z,29.55
2018-02-15T17:13:02.839Z,28.80
2018-02-15T17:15:28.961Z,32.65
2018-02-15T17:17:54.961Z,30.35
2018-02-15T17:20:21.141Z,29.33
2018-02-15T17:22:47.171Z,31.77
2018-02-15T17:25:13.175Z,29.90
2018-02-15T17:27:39.202Z,29.03
2018-02-15T17:30:06.404Z,31.80
2018-02-15T17:32:34.236Z,30.75
2018-02-15T17:35:00.206Z,29.45
2018-02-15T17:37:26.432Z,30.63
2018-02-15T17:39:52.649Z,29.60
2018-02-15T17:42:18.610Z,29.02
2018-02-15T17:44:44.944Z,28.97
2018-02-15T17:47:13.108Z,28.75
2018-02-15T17:49:39.113Z,32.55
2018-02-15T17:52:05.763Z,29.20
2018-02-15T17:54:31.731Z,33.63
2018-02-15T17:56:57.749Z,29.77
2018-02-15T17:59:24.745Z,32.47
2018-02-15T18:01:53.940Z,31.55
2018-02-15T18:04:19.926Z,30.17
2018-02-15T18:06:48.484Z,32.57
2018-02-15T18:09:14.863Z,32.50
2018-02-15T18:11:41.824Z,32.78
2018-02-15T18:14:09.465Z,32.85
2018-02-15T18:16:35.416Z,31.83
2018-02-15T18:19:01.380Z,33.50
2018-02-15T18:21:27.404Z,33.30
2018-02-15T18:23:53.582Z,35.00
2018-02-15T18:26:23.190Z,33.13
2018-02-15T18:28:49.219Z,34.22
2018-02-15T18:31:18.690Z,33.50
2018-02-15T18:33:45.405Z,34.63
2018-02-15T18:36:11.371Z,33.53
2018-02-15T18:38:37.289Z,39.10
2018-02-15T18:41:03.533Z,33.80
2018-02-15T18:43:29.424Z,37.13
2018-02-15T18:45:55.453Z,35.27
2018-02-15T18:48:21.428Z,34.05
2018-02-15T18:50:48.137Z,35.57
2018-02-15T18:53:14.135Z,38.53
2018-02-15T18:55:40.074Z,37.90
2018-02-15T18:58:06.240Z,37.60
2018-02-15T19:00:32.947Z,38.50
2018-02-15T19:02:58.894Z,38.58
2018-02-15T19:05:24.938Z,38.43
2018-02-15T19:07:50.856Z,38.92
2018-02-15T19:10:16.787Z,38.53
2018-02-15T19:12:42.710Z,36.40
2018-02-15T19:15:10.968Z,37.43
2018-02-15T19:17:36.899Z,37.92
2018-02-15T19:20:02.862Z,37.63
2018-02-15T19:22:28.851Z,39.33
2018-02-15T19:24:54.777Z,37.83
2018-02-15T19:27:21.244Z,37.20
2018-02-15T19:29:49.132Z,41.00
2018-02-15T19:32:15.123Z,37.17
2018-02-15T19:34:41.149Z,38.67
2018-02-15T19:37:08.161Z,37.20
2018-02-15T19:39:34.347Z,40.45
2018-02-15T19:42:00.715Z,39.33
2018-02-15T19:44:26.792Z,42.78
2018-02-15T19:46:55.585Z,40.08
2018-02-15T19:49:24.230Z,41.67
2018-02-15T19:51:50.542Z,42.30
2018-02-15T19:54:16.532Z,40.80
2018-02-15T19:56:46.584Z,40.00
2018-02-15T19:59:16.538Z,40.45
2018-02-15T20:01:45.565Z,38.75
2018-02-15T20:04:14.142Z,42.15
2018-02-15T20:06:40.163Z,40.95
2018-02-15T20:09:06.164Z,41.58
2018-02-15T20:11:38.672Z,45.73
2018-02-15T20:14:05.456Z,40.72
2018-02-15T20:16:32.103Z,46.88
2018-02-15T20:18:59.498Z,46.37
2018-02-15T20:21:25.452Z,39.15
2018-02-15T20:23:51.540Z,43.57
2018-02-15T20:26:24.504Z,42.08
2018-02-15T20:28:50.639Z,39.33
2018-02-15T20:31:16.625Z,42.08
2018-02-15T20:33:42.584Z,43.50
2018-02-15T20:36:08.680Z,40.57
2018-02-15T20:38:41.506Z,45.78
2018-02-15T20:41:09.196Z,46.47
2018-02-15T20:43:35.184Z,43.67
2018-02-15T20:46:01.786Z,43.53
2018-02-15T20:48:28.766Z,42.30
2018-02-15T20:51:01.070Z,45.28
2018-02-15T20:53:33.124Z,38.50
2018-02-15T20:55:59.104Z,44.95
2018-02-15T20:58:25.762Z,42.50
2018-02-15T21:00:51.764Z,43.08
2018-02-15T21:03:17.859Z,41.67
2018-02-15T21:05:43.918Z,41.83
2018-02-15T21:08:10.142Z,41.35
2018-02-15T21:10:36.115Z,42.22
2018-02-15T21:13:02.234Z,41.27
2018-02-15T21:15:29.470Z,41.92
2018-02-15T21:17:55.423Z,41.22
2018-02-15T21:20:21.415Z,41.50
2018-02-15T21:22:47.547Z,41.00
2018-02-15T21:25:13.528Z,40.97
2018-02-15T21:27:39.599Z,45.57
2018-02-15T21:30:05.836Z,42.35
2018-02-15T21:32:31.856Z,46.80
2018-02-15T21:34:57.830Z,43.25
2018-02-15T21:37:23.762Z,43.00
2018-02-15T21:39:50.533Z,42.60
2018-02-15T21:42:16.508Z,45.03
2018-02-15T21:44:42.540Z,43.77
2018-02-15T21:47:09.252Z,48.00
2018-02-15T21:49:35.252Z,48.38
2018-02-15T21:52:01.231Z,43.38
2018-02-15T21:54:28.161Z,45.20
2018-02-15T21:56:54.955Z,46.90
2018-02-15T21:59:21.975Z,43.90
2018-02-15T22:01:48.720Z,46.65
2018-02-15T22:04:14.735Z,45.70
2018-02-15T22:06:41.409Z,49.85
2018-02-15T22:09:07.422Z,48.38
2018-02-15T22:11:33.398Z,49.28
2018-02-15T22:14:00.303Z,46.03
2018-02-15T22:16:26.282Z,45.83
2018-02-15T22:18:52.436Z,45.30
2018-02-15T22:21:20.186Z,46.53
2018-02-15T22:23:46.304Z,46.15
2018-02-15T22:26:12.291Z,48.28
2018-02-15T22:28:38.226Z,46.30
2018-02-15T22:31:05.807Z,47.03
2018-02-15T22:33:31.806Z,46.05
2018-02-15T22:35:58.552Z,44.23
2018-02-15T22:38:24.566Z,46.42
2018-02-15T22:40:50.586Z,46.80
2018-02-15T22:43:18.214Z,43.97
2018-02-15T22:45:44.224Z,43.17
2018-02-15T22:48:10.222Z,42.78
2018-02-15T22:50:36.206Z,42.70
2018-02-15T22:53:02.282Z,39.73
2018-02-15T22:55:28.262Z,40.50
2018-02-15T22:57:54.232Z,41.47
2018-02-15T23:00:20.926Z,45.17
2018-02-15T23:02:46.854Z,42.17
2018-02-15T23:05:13.533Z,45.90
2018-02-15T23:07:39.606Z,42.38
2018-02-15T23:10:05.530Z,41.47
2018-02-15T23:12:32.193Z,40.70
2018-02-15T23:14:58.814Z,41.70
2018-02-15T23:17:25.493Z,41.53
2018-02-15T23:19:53.158Z,42.45
2018-02-15T23:22:19.095Z,42.53
2018-02-15T23:24:45.181Z,38.60
2018-02-15T23:27:11.124Z,41.53
2018-02-15T23:29:37.976Z,41.70
2018-02-15T23:32:03.928Z,42.45
2018-02-15T23:34:30.676Z,41.77
2018-02-15T23:36:56.613Z,41.42
2018-02-15T23:39:23.517Z,40.40
2018-02-15T23:41:50.234Z,40.25
2018-02-15T23:44:16.169Z,39.15
2018-02-15T23:46:42.142Z,41.13
2018-02-15T23:49:08.159Z,38.47
2018-02-15T23:51:34.120Z,39.03
2018-02-15T23:54:00.079Z,39.63
2018-02-15T23:56:26.051Z,38.70
2018-02-15T23:58:51.958Z,40.20
